Terminal Aerodrome Forecast
Issued by NWS

Home | Current Version | Previous Version | Text Only | Print | Product List | Glossary On
Versions: 1 2 3 4 5 6 7 8 9 10 11 12 13
000
FTUS43 KAPX 301741
TAFMBL
TAF
KMBL 301741Z 3018/3118 06006KT P6SM SCT050
     FM302000 04005KT P6SM BKN050
     FM310000 VRB03KT P6SM SCT050 BKN100
     FM311100 09003KT P6SM BKN050
     FM311600 05007KT P6SM BKN080=

USA.gov is the U.S. government's official web portal to all federal, state and local government web resources and services.